Muldoon, Texas
Current Conditions -  °F | °C
As of 9:35 PM on Wednesday 22 Oct 2014 (Local Time) from K3T5 Reporting Station
Clear Clear  
Wind Chill: 68°   Ceiling: Unl
Heat Index: 68°   Visibility: 10mi
Dew Point: 62°   Wind: 0mph
Humidity: 82%   Direction: NA
Pressure: 30.07"   Gusts: NA
Location:  29.82°N, 97.07°W
Report Text: K3T5 230235Z AUTO 00000KT 10SM CLR 20/17 A3007 RMK AO2 T01990167
Loading
Personal Weather Stations






























Interactive Weather Map
Tropical Storm Tracking
New forecast layout! Learn more

10-Day Weather Forecast

Advertisements
Track Severe Weather on mobile